Cinderella 1 — SBLK — position and weather

sailwx.info

Track history (hours):
 
Tides and Currents Weather Stations Pressure Air Temp Water Temp Dewpoint Dewpoint Depression Visibility Wind Speed Wind Dir Waves Ship Positions

Cinderella 1

Last reported at 2017-Aug-23 21:56 UTC. Time now 2017-Aug-23 23:19 UTC.
Position N 59°20' E 018°05'.

Length 42 m; draft 1.1 m.

Type: Passenger vessel. MMSI: 265524530.

Date/timePositionNaut miles runAvg speedWind from/ knotsBaromVisibWave heightAir tempDewpointWater temp
2017-Aug-23 21:56N 59°20' E 018°05'0 0.1
2017-Aug-23 21:30N 59°20' E 018°05'0 0.0
2017-Aug-23 21:00N 59°20' E 018°05'0 0.0
2017-Aug-23 20:30N 59°20' E 018°05'0 0.0
2017-Aug-23 20:00N 59°20' E 018°05'713.6
2017-Aug-23 19:30N 59°22' E 018°17'612.6
2017-Aug-23 19:00N 59°26' E 018°27'1320.9
2017-Aug-23 18:23N 59°21' E 018°50'614.4
2017-Aug-23 18:00N 59°26' E 018°56'6 8.0
2017-Aug-23 17:17N 59°27' E 018°45'614.4
2017-Aug-23 16:52N 59°24' E 018°34'617.8
2017-Aug-23 16:30N 59°26' E 018°22'5 9.8
2017-Aug-23 16:00N 59°22' E 018°16'612.4
2017-Aug-23 15:30N 59°20' E 018°05'0 0.3
2017-Aug-23 15:00N 59°20' E 018°05'1211.5
2017-Aug-23 14:00N 59°26' E 018°24'816.1
2017-Aug-23 13:29N 59°26' E 018°40'712.0
2017-Aug-23 12:52N 59°25' E 018°54'2 5.2
2017-Aug-23 12:30N 59°27' E 018°53'8 7.9
2017-Aug-23 11:26N 59°24' E 018°37'716.3
2017-Aug-23 10:59N 59°25' E 018°23'611.5
2017-Aug-23 10:30N 59°22' E 018°15'510.9
2017-Aug-23 10:00N 59°20' E 018°05'0 0.1
2017-Aug-23 09:30N 59°20' E 018°05'0 0.0
2017-Aug-23 09:00N 59°20' E 018°05'0 0.0
2017-Aug-23 08:30N 59°20' E 018°05'0 0.0
2017-Aug-23 08:00N 59°20' E 018°05'0 0.0
2017-Aug-23 07:30N 59°20' E 018°05'0 0.0
2017-Aug-23 07:00N 59°20' E 018°05'0 0.0
2017-Aug-23 06:29N 59°20' E 018°05'0 0.0
2017-Aug-23 06:00N 59°20' E 018°05'0 0.0
2017-Aug-23 05:29N 59°20' E 018°05'0 0.0
2017-Aug-23 05:00N 59°20' E 018°05'0 0.0
2017-Aug-23 04:30N 59°20' E 018°05'0 0.0
2017-Aug-23 04:00N 59°20' E 018°05'0 0.0
2017-Aug-23 03:30N 59°20' E 018°05'0 0.0
2017-Aug-23 03:00N 59°20' E 018°05'0 0.0
2017-Aug-23 02:31N 59°20' E 018°05'0 0.0
2017-Aug-23 02:00N 59°20' E 018°05'0 0.0
2017-Aug-23 01:30N 59°20' E 018°05'0 0.0
2017-Aug-23 01:00N 59°20' E 018°05'0 0.0
2017-Aug-23 00:29N 59°20' E 018°05'0 0.0
2017-Aug-23 00:00N 59°20' E 018°05'0 0.0
2017-Aug-22 23:30N 59°20' E 018°05'0 0.0
2017-Aug-22 22:59N 59°20' E 018°05'0 0.0
2017-Aug-22 22:30N 59°20' E 018°05'0 0.0
2017-Aug-22 22:00N 59°20' E 018°05'0 0.0
2017-Aug-22 21:30N 59°20' E 018°05'0 0.0
2017-Aug-22 21:00N 59°20' E 018°05'0 0.0
2017-Aug-22 20:30N 59°20' E 018°05'0 0.4
2017-Aug-22 20:00N 59°20' E 018°05'612.4
2017-Aug-22 19:30N 59°22' E 018°16'714.2
2017-Aug-22 19:00N 59°26' E 018°27'1318.1
2017-Aug-22 18:16N 59°24' E 018°53'3 8.4
2017-Aug-22 17:55N 59°27' E 018°55'6 8.8
2017-Aug-22 17:17N 59°27' E 018°44'614.1
2017-Aug-22 16:51N 59°24' E 018°35'616.6
2017-Aug-22 16:30N 59°25' E 018°23'510.2
2017-Aug-22 16:00N 59°22' E 018°16'612.3
2017-Aug-22 15:30N 59°20' E 018°05'1 1.2
2017-Aug-22 15:00N 59°19' E 018°06'714.0
2017-Aug-22 14:31N 59°23' E 018°18'612.7
2017-Aug-22 14:00N 59°26' E 018°28'813.6
2017-Aug-22 13:23N 59°26' E 018°45'6 8.9
2017-Aug-22 12:46N 59°26' E 018°55'410.4
2017-Aug-22 12:21N 59°29' E 018°50'3 5.8
2017-Aug-22 11:49N 59°27' E 018°44'411.0
2017-Aug-22 11:27N 59°25' E 018°38'716.5
2017-Aug-22 11:01N 59°25' E 018°23'611.2
2017-Aug-22 10:30N 59°22' E 018°15'611.1
2017-Aug-22 10:01N 59°20' E 018°05'0 0.0
2017-Aug-22 09:30N 59°20' E 018°05'0 0.0
2017-Aug-22 09:00N 59°20' E 018°05'0 0.0
2017-Aug-22 08:30N 59°20' E 018°05'0 0.0
2017-Aug-22 08:00N 59°20' E 018°05'0 0.0
2017-Aug-22 07:30N 59°20' E 018°05'0 0.0
2017-Aug-22 07:00N 59°20' E 018°05'0 0.0
2017-Aug-22 06:30N 59°20' E 018°05'0 0.0
2017-Aug-22 06:00N 59°20' E 018°05'0 0.0
2017-Aug-22 05:30N 59°20' E 018°05'0 0.0
2017-Aug-22 05:00N 59°20' E 018°05'0 0.0
2017-Aug-22 04:30N 59°20' E 018°05'0 0.0
2017-Aug-22 04:00N 59°20' E 018°05'0 0.0
2017-Aug-22 03:30N 59°20' E 018°05'0 0.0
2017-Aug-22 03:01N 59°20' E 018°05'0 0.0
2017-Aug-22 02:30N 59°20' E 018°05'0 0.0
2017-Aug-22 02:00N 59°20' E 018°05'0 0.0
2017-Aug-22 01:30N 59°20' E 018°05'0 0.0
2017-Aug-22 01:00N 59°20' E 018°05'0 0.0
2017-Aug-22 00:30N 59°20' E 018°05'0 0.0
2017-Aug-22 00:00N 59°20' E 018°05'0 0.0
2017-Aug-21 23:30N 59°20' E 018°05'0 0.0
2017-Aug-21 23:00N 59°20' E 018°05'0 0.0
2017-Aug-21 22:30N 59°20' E 018°05'0 0.0
2017-Aug-21 22:00N 59°20' E 018°05'0 0.0
2017-Aug-21 21:30N 59°20' E 018°05'0 0.0
2017-Aug-21 21:00N 59°20' E 018°05'0 0.0
2017-Aug-21 20:30N 59°20' E 018°05'0 0.2
2017-Aug-21 20:00N 59°20' E 018°05'612.4
2017-Aug-21 19:30N 59°22' E 018°16'713.5
2017-Aug-21 18:59N 59°26' E 018°28'1122.6
2017-Aug-21 18:29N 59°22' E 018°47'612.0
2017-Aug-21 18:00N 59°26' E 018°55'5 9.6
2017-Aug-21 17:31N 59°28' E 018°47'5 9.3
2017-Aug-21 17:00N 59°26' E 018°39'815.2
2017-Aug-21 16:28N 59°25' E 018°22'4 9.5
2017-Aug-21 16:00N 59°22' E 018°16'612.4
2017-Aug-21 15:30N 59°20' E 018°05'1 2.3
2017-Aug-21 15:00N 59°19' E 018°06'815.9
2017-Aug-21 14:30N 59°23' E 018°20'510.7
2017-Aug-21 14:00N 59°26' E 018°29'613.1
2017-Aug-21 13:30N 59°26' E 018°42'612.6
2017-Aug-21 13:00N 59°24' E 018°53'3 5.7
2017-Aug-21 12:30N 59°27' E 018°52'4 7.2
2017-Aug-21 12:01N 59°28' E 018°45'5 9.3
2017-Aug-21 11:31N 59°25' E 018°38'815.0
2017-Aug-21 10:59N 59°25' E 018°22'510.8
2017-Aug-21 10:30N 59°22' E 018°15'510.9
2017-Aug-21 10:01N 59°20' E 018°05'0 0.1
2017-Aug-21 09:30N 59°20' E 018°05'0 0.0
2017-Aug-21 09:01N 59°20' E 018°05'0 0.0
2017-Aug-21 08:31N 59°20' E 018°05'0 0.0
2017-Aug-21 08:00N 59°20' E 018°05'0 0.0
2017-Aug-21 07:30N 59°20' E 018°05'0 0.0
2017-Aug-21 07:00N 59°20' E 018°05'0 0.0
2017-Aug-21 06:30N 59°20' E 018°05'0 0.0
2017-Aug-21 06:00N 59°20' E 018°05'0 0.0
2017-Aug-21 05:30N 59°20' E 018°05'0 0.0
2017-Aug-21 05:01N 59°20' E 018°05'0 0.0
2017-Aug-21 04:30N 59°20' E 018°05'0 0.0
2017-Aug-21 04:01N 59°20' E 018°05'0 0.0
2017-Aug-21 03:30N 59°20' E 018°05'0 0.0
2017-Aug-21 03:00N 59°20' E 018°05'0 0.0
2017-Aug-21 02:30N 59°20' E 018°05'0 0.0
2017-Aug-21 02:01N 59°20' E 018°05'0 0.0
2017-Aug-21 01:31N 59°20' E 018°05'0 0.0
2017-Aug-21 01:01N 59°20' E 018°05'0 0.0
2017-Aug-21 00:31N 59°20' E 018°05'0 0.0
2017-Aug-21 00:00N 59°20' E 018°05'0 0.0
2017-Aug-20 23:31N 59°20' E 018°05'0 0.0
2017-Aug-20 23:01N 59°20' E 018°05'0 0.0
2017-Aug-20 22:30N 59°20' E 018°05'0 0.0
2017-Aug-20 22:01N 59°20' E 018°05'0 0.0
2017-Aug-20 21:30N 59°20' E 018°05'0 0.0
2017-Aug-20 21:00N 59°20' E 018°05'0 0.0
2017-Aug-20 20:31N 59°20' E 018°05'0 0.0
2017-Aug-20 20:00N 59°20' E 018°05'3 5.0
2017-Aug-20 19:31N 59°19' E 018°09'815.6
2017-Aug-20 19:00N 59°24' E 018°21'611.4
2017-Aug-20 18:27N 59°24' E 018°34'711.4
2017-Aug-20 17:51N 59°28' E 018°45'410.6
2017-Aug-20 17:30N 59°30' E 018°51'510.1
2017-Aug-20 17:00N 59°25' E 018°55'810.6
2017-Aug-20 16:14N 59°26' E 018°39'414.7
2017-Aug-20 15:58N 59°25' E 018°31'510.4
2017-Aug-20 15:29N 59°24' E 018°21'816.4
2017-Aug-20 15:01N 59°19' E 018°09'3 5.0
2017-Aug-20 14:30N 59°20' E 018°05'4 7.8
2017-Aug-20 14:00N 59°20' E 018°12'612.8
2017-Aug-20 13:30N 59°25' E 018°22'713.1
2017-Aug-20 13:00N 59°24' E 018°35'7 7.9
2017-Aug-20 12:09N 59°27' E 018°46'212.3
2017-Aug-20 12:00N 59°28' E 018°49'3 6.9
2017-Aug-20 11:31N 59°25' E 018°55'0 0.7
2017-Aug-20 10:56N 59°25' E 018°55'5 9.8
2017-Aug-20 10:27N 59°29' E 018°50'3 5.8
2017-Aug-20 09:54N 59°27' E 018°44'613.0
2017-Aug-20 09:26N 59°24' E 018°35'613.9
2017-Aug-20 09:00N 59°25' E 018°23'611.7
2017-Aug-20 08:30N 59°21' E 018°14'510.1
2017-Aug-20 08:01N 59°20' E 018°05'0 0.1
2017-Aug-20 07:30N 59°20' E 018°05'0 0.0
2017-Aug-20 07:00N 59°20' E 018°05'0 0.0
2017-Aug-20 06:30N 59°20' E 018°05'0 0.0
2017-Aug-20 06:00N 59°20' E 018°05'0 0.0
2017-Aug-20 05:30N 59°20' E 018°05'0 0.0
2017-Aug-20 05:00N 59°20' E 018°05'0 0.0
2017-Aug-20 04:30N 59°20' E 018°05'0 0.0
2017-Aug-20 04:00N 59°20' E 018°05'0 0.0
2017-Aug-20 03:30N 59°20' E 018°05'0 0.0
2017-Aug-20 03:00N 59°20' E 018°05'0 0.0
2017-Aug-20 02:31N 59°20' E 018°05'0 0.0
2017-Aug-20 02:00N 59°20' E 018°05'0 0.0
2017-Aug-20 01:30N 59°20' E 018°05'0 0.0
2017-Aug-20 01:00N 59°20' E 018°05'0 0.0
2017-Aug-20 00:30N 59°20' E 018°05'0 0.0
2017-Aug-20 00:00N 59°20' E 018°05'0 0.0
2017-Aug-19 23:30N 59°20' E 018°05'0 0.0
2017-Aug-19 23:00N 59°20' E 018°05'0 0.0
2017-Aug-19 22:30N 59°20' E 018°05'0 0.0
2017-Aug-19 22:00N 59°20' E 018°05'0 0.0
2017-Aug-19 21:30N 59°20' E 018°05'0 0.0
2017-Aug-19 21:00N 59°20' E 018°05'0 0.0
2017-Aug-19 20:30N 59°20' E 018°05'0 0.0
2017-Aug-19 20:00N 59°20' E 018°05'2 3.3
2017-Aug-19 19:30N 59°19' E 018°08'815.9
2017-Aug-19 19:00N 59°24' E 018°21'611.7
2017-Aug-19 18:30N 59°25' E 018°32'713.4
2017-Aug-19 18:01N 59°27' E 018°44'5 9.3
2017-Aug-19 17:31N 59°30' E 018°51'510.2
2017-Aug-19 17:01N 59°26' E 018°55'6 9.8
2017-Aug-19 16:25N 59°26' E 018°44'615.3
2017-Aug-19 16:00N 59°25' E 018°31'510.7
2017-Aug-19 15:30N 59°24' E 018°21'815.7
2017-Aug-19 15:00N 59°19' E 018°09'1 1.1
2017-Aug-19 14:01N 59°20' E 018°11'713.9
2017-Aug-19 13:30N 59°24' E 018°21'612.2
2017-Aug-19 12:59N 59°24' E 018°34'711.2
2017-Aug-19 12:21N 59°28' E 018°46'2 5.6
2017-Aug-19 11:59N 59°29' E 018°50'5 6.4
2017-Aug-19 11:15N 59°24' E 018°53'2 6.5
2017-Aug-19 11:00N 59°25' E 018°55'5 9.8
2017-Aug-19 10:30N 59°30' E 018°50'4 7.2
2017-Aug-19 10:00N 59°27' E 018°44'611.8
2017-Aug-19 09:30N 59°24' E 018°35'713.1
2017-Aug-19 09:00N 59°25' E 018°22'510.8
2017-Aug-19 08:30N 59°21' E 018°14'5 9.9
2017-Aug-19 08:00N 59°20' E 018°05'0 0.1
2017-Aug-19 07:31N 59°20' E 018°05'0 0.0
2017-Aug-19 07:01N 59°20' E 018°05'0 0.0
2017-Aug-19 06:31N 59°20' E 018°05'0 0.0
2017-Aug-19 06:01N 59°20' E 018°05'0 0.0
2017-Aug-19 05:31N 59°20' E 018°05'0 0.0
2017-Aug-19 05:01N 59°20' E 018°05'0 0.0
2017-Aug-19 04:31N 59°20' E 018°05'0 0.0
2017-Aug-19 04:01N 59°20' E 018°05'0 0.0
2017-Aug-19 03:31N 59°20' E 018°05'0 0.0
2017-Aug-19 03:01N 59°20' E 018°05'0 0.0
2017-Aug-19 02:31N 59°20' E 018°05'0 0.0
2017-Aug-19 02:00N 59°20' E 018°05'0 0.0
2017-Aug-19 01:31N 59°20' E 018°05'0 0.0
2017-Aug-19 01:00N 59°20' E 018°05'0 0.0
2017-Aug-19 00:30N 59°20' E 018°05'0 0.0
2017-Aug-19 00:01N 59°20' E 018°05'0 0.0
2017-Aug-18 23:29N 59°20' E 018°05'0 0.0
2017-Aug-18 23:00N 59°20' E 018°05'0 0.0
2017-Aug-18 22:30N 59°20' E 018°05'0 0.0
2017-Aug-18 22:00N 59°20' E 018°05'0 0.0
2017-Aug-18 21:30N 59°20' E 018°05'0 0.0
2017-Aug-18 21:00N 59°20' E 018°05'0 0.0
2017-Aug-18 20:30N 59°20' E 018°05'510.0
2017-Aug-18 20:01N 59°21' E 018°14'713.7
2017-Aug-18 19:30N 59°26' E 018°23'816.3
2017-Aug-18 18:59N 59°26' E 018°40'714.4
2017-Aug-18 18:30N 59°24' E 018°53'3 6.5
2017-Aug-18 18:00N 59°27' E 018°51'3 6.0
2017-Aug-18 17:27N 59°28' E 018°45'4 9.8
2017-Aug-18 17:01N 59°25' E 018°38'815.7
2017-Aug-18 16:30N 59°26' E 018°22'611.7
2017-Aug-18 16:00N 59°21' E 018°14'510.1
2017-Aug-18 15:31N 59°20' E 018°05'0 0.1
2017-Aug-18 15:00N 59°20' E 018°05'0 0.0
2017-Aug-18 14:31N 59°20' E 018°05'9 9.4
2017-Aug-18 13:30N 59°24' E 018°21'711.6
2017-Aug-18 12:56N 59°24' E 018°35'612.5
2017-Aug-18 12:24N 59°28' E 018°45'4 8.4
2017-Aug-18 11:58N 59°30' E 018°51'510.6
2017-Aug-18 11:30N 59°25' E 018°55'0 0.6
2017-Aug-18 10:51N 59°25' E 018°55'3 8.3
2017-Aug-18 10:30N 59°27' E 018°51'3 6.1
2017-Aug-18 09:57N 59°28' E 018°45'4 9.6
2017-Aug-18 09:30N 59°25' E 018°38'815.2
2017-Aug-18 08:59N 59°25' E 018°22'511.1
2017-Aug-18 08:30N 59°22' E 018°15'510.5
2017-Aug-18 08:01N 59°20' E 018°05'0 0.0
2017-Aug-18 07:30N 59°20' E 018°05'0 0.0
2017-Aug-18 07:00N 59°20' E 018°05'0 0.0
2017-Aug-18 06:30N 59°20' E 018°05'0 0.0
2017-Aug-18 06:00N 59°20' E 018°05'0 0.0
2017-Aug-18 05:30N 59°20' E 018°05'0 0.0
2017-Aug-18 05:00N 59°20' E 018°05'0 0.0
2017-Aug-18 04:30N 59°20' E 018°05'0 0.0
2017-Aug-18 04:00N 59°20' E 018°05'0 0.0
2017-Aug-18 03:30N 59°20' E 018°05'0 0.0
2017-Aug-18 03:01N 59°20' E 018°05'0 0.0
2017-Aug-18 02:31N 59°20' E 018°05'0 0.0
2017-Aug-18 02:01N 59°20' E 018°05'0 0.0
2017-Aug-18 01:30N 59°20' E 018°05'0 0.0
2017-Aug-18 01:00N 59°20' E 018°05'0 0.0
2017-Aug-18 00:30N 59°20' E 018°05'0 0.0
2017-Aug-18 00:01N 59°20' E 018°05'0 0.0
2017-Aug-17 23:31N 59°20' E 018°05'0 0.0
2017-Aug-17 23:01N 59°20' E 018°05'0 0.0
2017-Aug-17 22:30N 59°20' E 018°05'0 0.0
2017-Aug-17 22:00N 59°20' E 018°05'0 0.0
2017-Aug-17 21:30N 59°20' E 018°05'0 0.0
2017-Aug-17 21:01N 59°20' E 018°05'0 0.0
2017-Aug-17 20:31N 59°20' E 018°05'611.9
2017-Aug-17 20:00N 59°22' E 018°16'611.8
2017-Aug-17 19:30N 59°26' E 018°23'816.4
2017-Aug-17 19:00N 59°26' E 018°39'714.6
2017-Aug-17 18:30N 59°24' E 018°53'2 4.5
2017-Aug-17 18:00N 59°27' E 018°53'4 8.5
2017-Aug-17 17:30N 59°28' E 018°45'510.8
2017-Aug-17 17:00N 59°24' E 018°37'814.7
2017-Aug-17 16:30N 59°25' E 018°22'611.7
2017-Aug-17 16:00N 59°21' E 018°14'510.1
2017-Aug-17 15:31N 59°20' E 018°05'0 0.1
2017-Aug-17 15:00N 59°20' E 018°05'0 0.0
2017-Aug-17 14:30N 59°20' E 018°05'4 8.4
2017-Aug-17 14:00N 59°20' E 018°13'611.5
2017-Aug-17 13:30N 59°24' E 018°21'712.9
2017-Aug-17 13:00N 59°24' E 018°34'611.5
2017-Aug-17 12:28N 59°27' E 018°44'4 9.0
2017-Aug-17 12:01N 59°30' E 018°50'510.9
2017-Aug-17 11:30N 59°25' E 018°55'0 0.9
2017-Aug-17 11:00N 59°25' E 018°55'510.1
2017-Aug-17 10:31N 59°30' E 018°51'4 7.9
2017-Aug-17 09:59N 59°27' E 018°44'612.5
2017-Aug-17 09:29N 59°24' E 018°34'612.5
2017-Aug-17 09:00N 59°25' E 018°22'510.8
2017-Aug-17 08:30N 59°21' E 018°14'510.1
2017-Aug-17 08:00N 59°20' E 018°05'0 0.1
2017-Aug-17 07:30N 59°20' E 018°05'0 0.0
2017-Aug-17 07:00N 59°20' E 018°05'0 0.0
2017-Aug-17 06:30N 59°20' E 018°05'0 0.0
2017-Aug-17 06:00N 59°20' E 018°05'0 0.0
2017-Aug-17 05:31N 59°20' E 018°05'0 0.0
2017-Aug-17 05:00N 59°20' E 018°05'0 0.0
2017-Aug-17 04:30N 59°20' E 018°05'0 0.0
2017-Aug-17 04:00N 59°20' E 018°05'0 0.0
2017-Aug-17 03:31N 59°20' E 018°05'0 0.0
2017-Aug-17 03:00N 59°20' E 018°05'0 0.0
2017-Aug-17 02:30N 59°20' E 018°05'0 0.0
2017-Aug-17 02:00N 59°20' E 018°05'0 0.0
2017-Aug-17 01:30N 59°20' E 018°05'0 0.0
2017-Aug-17 01:01N 59°20' E 018°05'0 0.0
2017-Aug-17 00:31N 59°20' E 018°05'0 0.0
2017-Aug-17 00:00N 59°20' E 018°05'0 0.0
2017-Aug-16 23:30N 59°20' E 018°05'0 0.0
2017-Aug-16 23:00N 59°20' E 018°05'0 0.0
2017-Aug-16 22:31N 59°20' E 018°05'0 0.0
2017-Aug-16 22:00N 59°20' E 018°05'0 0.0
2017-Aug-16 21:31N 59°20' E 018°05'0 0.0
2017-Aug-16 21:01N 59°20' E 018°05'0 0.0
2017-Aug-16 20:31N 59°20' E 018°05'510.3
2017-Aug-16 20:01N 59°21' E 018°14'612.7
2017-Aug-16 19:30N 59°26' E 018°23'915.0
2017-Aug-16 18:56N 59°26' E 018°40'714.1
2017-Aug-16 18:26N 59°24' E 018°53'3 6.8
2017-Aug-16 18:01N 59°27' E 018°55'4 7.9
2017-Aug-16 17:30N 59°28' E 018°48'610.5
2017-Aug-16 16:56N 59°25' E 018°38'818.1
2017-Aug-16 16:30N 59°26' E 018°22'510.6
2017-Aug-16 16:00N 59°22' E 018°15'611.6
2017-Aug-16 15:31N 59°20' E 018°05'0 0.0
2017-Aug-16 15:00N 59°20' E 018°05'0 0.0
2017-Aug-16 14:31N 59°20' E 018°05'3 6.4
2017-Aug-16 14:00N 59°20' E 018°11'713.7
2017-Aug-16 13:30N 59°24' E 018°21'1011.7
2017-Aug-16 12:40N 59°26' E 018°40'412.2
2017-Aug-16 12:22N 59°28' E 018°47'3 7.0
2017-Aug-16 12:00N 59°30' E 018°50'5 9.7
2017-Aug-16 11:30N 59°25' E 018°55'1 1.8
2017-Aug-16 11:00N 59°25' E 018°54'510.4
2017-Aug-16 10:30N 59°29' E 018°49'3 6.1
2017-Aug-16 09:58N 59°27' E 018°44'4 8.5
2017-Aug-16 09:30N 59°25' E 018°38'815.8
2017-Aug-16 09:00N 59°25' E 018°22'611.3
2017-Aug-16 08:30N 59°21' E 018°15'510.6
2017-Aug-16 08:01N 59°20' E 018°05'0 0.0
2017-Aug-16 07:30N 59°20' E 018°05'0 0.0
2017-Aug-16 07:00N 59°20' E 018°05'0 0.0
2017-Aug-16 06:30N 59°20' E 018°05'0 0.0
2017-Aug-16 06:00N 59°20' E 018°05'0 0.0
2017-Aug-16 05:30N 59°20' E 018°05'0 0.0
2017-Aug-16 05:00N 59°20' E 018°05'0 0.0
2017-Aug-16 04:31N 59°20' E 018°05'0 0.0
2017-Aug-16 04:01N 59°20' E 018°05'0 0.0
2017-Aug-16 03:31N 59°20' E 018°05'0 0.0
2017-Aug-16 03:01N 59°20' E 018°05'0 0.0
2017-Aug-16 02:30N 59°20' E 018°05'0 0.0
2017-Aug-16 02:00N 59°20' E 018°05'0 0.0
2017-Aug-16 01:30N 59°20' E 018°05'0 0.0
2017-Aug-16 01:00N 59°20' E 018°05'0 0.0
2017-Aug-16 00:31N 59°20' E 018°05'0 0.0
2017-Aug-16 00:00N 59°20' E 018°05'0 0.0
2017-Aug-15 23:30N 59°20' E 018°05'0 0.0
2017-Aug-15 23:00N 59°20' E 018°05'0 0.0
2017-Aug-15 22:30N 59°20' E 018°05'0 0.0
2017-Aug-15 22:01N 59°20' E 018°05'0 0.0
2017-Aug-15 21:30N 59°20' E 018°05'0 0.0
2017-Aug-15 21:00N 59°20' E 018°05'0 0.1
2017-Aug-15 20:30N 59°20' E 018°05'611.3
2017-Aug-15 20:00N 59°22' E 018°15'612.6
2017-Aug-15 19:31N 59°26' E 018°23'816.3
2017-Aug-15 19:01N 59°26' E 018°40'713.4
2017-Aug-15 18:29N 59°24' E 018°53'3 6.5
2017-Aug-15 18:01N 59°27' E 018°55'4 7.2
2017-Aug-15 17:30N 59°28' E 018°48'510.3
2017-Aug-15 17:01N 59°26' E 018°39'816.6
2017-Aug-15 16:30N 59°26' E 018°22'611.2
2017-Aug-15 16:00N 59°22' E 018°15'510.7
2017-Aug-15 15:30N 59°20' E 018°05'0 0.1
2017-Aug-15 15:01N 59°20' E 018°05'0 0.0
2017-Aug-15 14:30N 59°20' E 018°05'4 7.1
2017-Aug-15 14:00N 59°20' E 018°12'612.9
2017-Aug-15 13:30N 59°24' E 018°21'912.5
2017-Aug-15 12:48N 59°26' E 018°38'311.0
2017-Aug-15 12:29N 59°27' E 018°44'4 8.2
2017-Aug-15 12:01N 59°30' E 018°50'5 9.8
2017-Aug-15 11:30N 59°25' E 018°55'0 0.7
2017-Aug-15 10:57N 59°25' E 018°55'4 8.7
2017-Aug-15 10:30N 59°28' E 018°50'3 5.0
2017-Aug-15 09:54N 59°27' E 018°44'612.7
2017-Aug-15 09:25N 59°24' E 018°34'613.3
2017-Aug-15 08:59N 59°25' E 018°22'511.6
2017-Aug-15 08:31N 59°21' E 018°14'510.0
2017-Aug-15 08:00N 59°20' E 018°05'0 0.0
2017-Aug-15 07:30N 59°20' E 018°05'0 0.0
2017-Aug-15 07:01N 59°20' E 018°05'0 0.0
2017-Aug-15 06:30N 59°20' E 018°05'0 0.0
2017-Aug-15 06:00N 59°20' E 018°05'0 0.0
2017-Aug-15 05:30N 59°20' E 018°05'0 0.0
2017-Aug-15 05:00N 59°20' E 018°05'0 0.0
2017-Aug-15 04:30N 59°20' E 018°05'0 0.0
2017-Aug-15 04:00N 59°20' E 018°05'0 0.0
2017-Aug-15 03:30N 59°20' E 018°05'0 0.0
2017-Aug-15 03:00N 59°20' E 018°05'0 0.0
2017-Aug-15 02:30N 59°20' E 018°05'0 0.0
2017-Aug-15 02:00N 59°20' E 018°05'0 0.0
2017-Aug-15 01:31N 59°20' E 018°05'0 0.0
2017-Aug-15 01:00N 59°20' E 018°05'0 0.0
2017-Aug-15 00:30N 59°20' E 018°05'0 0.0
2017-Aug-15 00:00N 59°20' E 018°05'0 0.0
2017-Aug-14 23:30N 59°20' E 018°05'0 0.0
2017-Aug-14 23:00N 59°20' E 018°05'0 0.0
2017-Aug-14 22:30N 59°20' E 018°05'0 0.0
2017-Aug-14 22:00N 59°20' E 018°05'0 0.0
2017-Aug-14 21:30N 59°20' E 018°05'0 0.0
2017-Aug-14 21:01N 59°20' E 018°05'0 0.0
2017-Aug-14 20:31N 59°20' E 018°05'510.3
2017-Aug-14 20:01N 59°21' E 018°14'714.6
2017-Aug-14 19:30N 59°27' E 018°25'714.9
2017-Aug-14 19:01N 59°26' E 018°39'714.4
2017-Aug-14 18:30N 59°24' E 018°53'3 5.4
2017-Aug-14 18:01N 59°27' E 018°54'4 7.3
2017-Aug-14 17:31N 59°28' E 018°47'5 9.4
2017-Aug-14 17:01N 59°26' E 018°38'816.3
2017-Aug-14 16:31N 59°26' E 018°22'510.5
2017-Aug-14 16:01N 59°22' E 018°15'611.4
2017-Aug-14 15:31N 59°20' E 018°05'0 0.1
2017-Aug-14 15:00N 59°20' E 018°05'0 0.0
2017-Aug-14 14:30N 59°20' E 018°05'4 7.2
2017-Aug-14 14:00N 59°20' E 018°12'712.7
2017-Aug-14 13:29N 59°24' E 018°21'612.6
2017-Aug-14 12:58N 59°24' E 018°34'612.2
2017-Aug-14 12:28N 59°27' E 018°44'4 8.5
2017-Aug-14 12:01N 59°30' E 018°50'5 9.9
2017-Aug-14 11:31N 59°25' E 018°55'1 1.2
2017-Aug-14 11:00N 59°25' E 018°54'510.0
2017-Aug-14 10:30N 59°29' E 018°50'3 5.9
2017-Aug-14 09:58N 59°27' E 018°44'612.6
2017-Aug-14 09:28N 59°24' E 018°34'612.8
2017-Aug-14 09:00N 59°25' E 018°22'510.9
2017-Aug-14 08:30N 59°21' E 018°14'510.1
2017-Aug-14 08:01N 59°20' E 018°05'0 0.0
2017-Aug-14 07:30N 59°20' E 018°05'0 0.0
2017-Aug-14 07:00N 59°20' E 018°05'0 0.0
2017-Aug-14 06:30N 59°20' E 018°05'0 0.0
2017-Aug-14 06:00N 59°20' E 018°05'0 0.0
2017-Aug-14 05:30N 59°20' E 018°05'0 0.0
2017-Aug-14 05:00N 59°20' E 018°05'0 0.0
2017-Aug-14 04:30N 59°20' E 018°05'0 0.0
2017-Aug-14 04:01N 59°20' E 018°05'0 0.0
2017-Aug-14 03:30N 59°20' E 018°05'0 0.0
2017-Aug-14 03:00N 59°20' E 018°05'0 0.0
2017-Aug-14 02:30N 59°20' E 018°05'0 0.0
2017-Aug-14 02:01N 59°20' E 018°05'0 0.0
2017-Aug-14 01:30N 59°20' E 018°05'0 0.0
2017-Aug-14 01:00N 59°20' E 018°05'0 0.0
2017-Aug-14 00:30N 59°20' E 018°05'0 0.0
2017-Aug-14 00:00N 59°20' E 018°05'0 0.0
2017-Aug-13 23:31N 59°20' E 018°05'0 0.0
2017-Aug-13 23:00N 59°20' E 018°05'0 0.0
2017-Aug-13 22:30N 59°20' E 018°05'0 0.0
2017-Aug-13 22:00N 59°20' E 018°05'  
Track history (hours):
 
Tides and Currents Weather Stations Pressure Air Temp Water Temp Dewpoint Dewpoint Depression Visibility Wind Speed Wind Dir Waves Ship Positions

Cinderella 1

Last reported at 2017-Aug-23 21:56 UTC. Time now 2017-Aug-23 23:19 UTC.
Position N 59°20' E 018°05'.

Length 42 m; draft 1.1 m.

Type: Passenger vessel. MMSI: 265524530.

Date/timePositionNaut miles runAvg speedWind from/ knotsBaromVisibWave heightAir tempDewpointWater temp
2017-Aug-23 21:56N 59°20' E 018°05'0 0.1
2017-Aug-23 21:30N 59°20' E 018°05'0 0.0
2017-Aug-23 21:00N 59°20' E 018°05'0 0.0
2017-Aug-23 20:30N 59°20' E 018°05'0 0.0
2017-Aug-23 20:00N 59°20' E 018°05'713.6
2017-Aug-23 19:30N 59°22' E 018°17'612.6
2017-Aug-23 19:00N 59°26' E 018°27'1320.9
2017-Aug-23 18:23N 59°21' E 018°50'614.4
2017-Aug-23 18:00N 59°26' E 018°56'6 8.0
2017-Aug-23 17:17N 59°27' E 018°45'614.4
2017-Aug-23 16:52N 59°24' E 018°34'617.8
2017-Aug-23 16:30N 59°26' E 018°22'5 9.8
2017-Aug-23 16:00N 59°22' E 018°16'612.4
2017-Aug-23 15:30N 59°20' E 018°05'0 0.3
2017-Aug-23 15:00N 59°20' E 018°05'1211.5
2017-Aug-23 14:00N 59°26' E 018°24'816.1
2017-Aug-23 13:29N 59°26' E 018°40'712.0
2017-Aug-23 12:52N 59°25' E 018°54'2 5.2
2017-Aug-23 12:30N 59°27' E 018°53'8 7.9
2017-Aug-23 11:26N 59°24' E 018°37'716.3
2017-Aug-23 10:59N 59°25' E 018°23'611.5
2017-Aug-23 10:30N 59°22' E 018°15'510.9
2017-Aug-23 10:00N 59°20' E 018°05'0 0.1
2017-Aug-23 09:30N 59°20' E 018°05'0 0.0
2017-Aug-23 09:00N 59°20' E 018°05'0 0.0
2017-Aug-23 08:30N 59°20' E 018°05'0 0.0
2017-Aug-23 08:00N 59°20' E 018°05'0 0.0
2017-Aug-23 07:30N 59°20' E 018°05'0 0.0
2017-Aug-23 07:00N 59°20' E 018°05'0 0.0
2017-Aug-23 06:29N 59°20' E 018°05'0 0.0
2017-Aug-23 06:00N 59°20' E 018°05'0 0.0
2017-Aug-23 05:29N 59°20' E 018°05'0 0.0
2017-Aug-23 05:00N 59°20' E 018°05'0 0.0
2017-Aug-23 04:30N 59°20' E 018°05'0 0.0
2017-Aug-23 04:00N 59°20' E 018°05'0 0.0
2017-Aug-23 03:30N 59°20' E 018°05'0 0.0
2017-Aug-23 03:00N 59°20' E 018°05'0 0.0
2017-Aug-23 02:31N 59°20' E 018°05'0 0.0
2017-Aug-23 02:00N 59°20' E 018°05'0 0.0
2017-Aug-23 01:30N 59°20' E 018°05'0 0.0
2017-Aug-23 01:00N 59°20' E 018°05'0 0.0
2017-Aug-23 00:29N 59°20' E 018°05'0 0.0
2017-Aug-23 00:00N 59°20' E 018°05'0 0.0
2017-Aug-22 23:30N 59°20' E 018°05'0 0.0
2017-Aug-22 22:59N 59°20' E 018°05'0 0.0
2017-Aug-22 22:30N 59°20' E 018°05'0 0.0
2017-Aug-22 22:00N 59°20' E 018°05'0 0.0
2017-Aug-22 21:30N 59°20' E 018°05'0 0.0
2017-Aug-22 21:00N 59°20' E 018°05'0 0.0
2017-Aug-22 20:30N 59°20' E 018°05'0 0.4
2017-Aug-22 20:00N 59°20' E 018°05'612.4
2017-Aug-22 19:30N 59°22' E 018°16'714.2
2017-Aug-22 19:00N 59°26' E 018°27'1318.1
2017-Aug-22 18:16N 59°24' E 018°53'3 8.4
2017-Aug-22 17:55N 59°27' E 018°55'6 8.8
2017-Aug-22 17:17N 59°27' E 018°44'614.1
2017-Aug-22 16:51N 59°24' E 018°35'616.6
2017-Aug-22 16:30N 59°25' E 018°23'510.2
2017-Aug-22 16:00N 59°22' E 018°16'612.3
2017-Aug-22 15:30N 59°20' E 018°05'1 1.2
2017-Aug-22 15:00N 59°19' E 018°06'714.0
2017-Aug-22 14:31N 59°23' E 018°18'612.7
2017-Aug-22 14:00N 59°26' E 018°28'813.6
2017-Aug-22 13:23N 59°26' E 018°45'6 8.9
2017-Aug-22 12:46N 59°26' E 018°55'410.4
2017-Aug-22 12:21N 59°29' E 018°50'3 5.8
2017-Aug-22 11:49N 59°27' E 018°44'411.0
2017-Aug-22 11:27N 59°25' E 018°38'716.5
2017-Aug-22 11:01N 59°25' E 018°23'611.2
2017-Aug-22 10:30N 59°22' E 018°15'611.1
2017-Aug-22 10:01N 59°20' E 018°05'0 0.0
2017-Aug-22 09:30N 59°20' E 018°05'0 0.0
2017-Aug-22 09:00N 59°20' E 018°05'0 0.0
2017-Aug-22 08:30N 59°20' E 018°05'0 0.0
2017-Aug-22 08:00N 59°20' E 018°05'0 0.0
2017-Aug-22 07:30N 59°20' E 018°05'0 0.0
2017-Aug-22 07:00N 59°20' E 018°05'0 0.0
2017-Aug-22 06:30N 59°20' E 018°05'0 0.0
2017-Aug-22 06:00N 59°20' E 018°05'0 0.0
2017-Aug-22 05:30N 59°20' E 018°05'0 0.0
2017-Aug-22 05:00N 59°20' E 018°05'0 0.0
2017-Aug-22 04:30N 59°20' E 018°05'0 0.0
2017-Aug-22 04:00N 59°20' E 018°05'0 0.0
2017-Aug-22 03:30N 59°20' E 018°05'0 0.0
2017-Aug-22 03:01N 59°20' E 018°05'0 0.0
2017-Aug-22 02:30N 59°20' E 018°05'0 0.0
2017-Aug-22 02:00N 59°20' E 018°05'0 0.0
2017-Aug-22 01:30N 59°20' E 018°05'0 0.0
2017-Aug-22 01:00N 59°20' E 018°05'0 0.0
2017-Aug-22 00:30N 59°20' E 018°05'0 0.0
2017-Aug-22 00:00N 59°20' E 018°05'0 0.0
2017-Aug-21 23:30N 59°20' E 018°05'0 0.0
2017-Aug-21 23:00N 59°20' E 018°05'0 0.0
2017-Aug-21 22:30N 59°20' E 018°05'0 0.0
2017-Aug-21 22:00N 59°20' E 018°05'0 0.0
2017-Aug-21 21:30N 59°20' E 018°05'0 0.0
2017-Aug-21 21:00N 59°20' E 018°05'0 0.0
2017-Aug-21 20:30N 59°20' E 018°05'0 0.2
2017-Aug-21 20:00N 59°20' E 018°05'612.4
2017-Aug-21 19:30N 59°22' E 018°16'713.5
2017-Aug-21 18:59N 59°26' E 018°28'1122.6
2017-Aug-21 18:29N 59°22' E 018°47'612.0
2017-Aug-21 18:00N 59°26' E 018°55'5 9.6
2017-Aug-21 17:31N 59°28' E 018°47'5 9.3
2017-Aug-21 17:00N 59°26' E 018°39'815.2
2017-Aug-21 16:28N 59°25' E 018°22'4 9.5
2017-Aug-21 16:00N 59°22' E 018°16'612.4
2017-Aug-21 15:30N 59°20' E 018°05'1 2.3
2017-Aug-21 15:00N 59°19' E 018°06'815.9
2017-Aug-21 14:30N 59°23' E 018°20'510.7
2017-Aug-21 14:00N 59°26' E 018°29'613.1
2017-Aug-21 13:30N 59°26' E 018°42'612.6
2017-Aug-21 13:00N 59°24' E 018°53'3 5.7
2017-Aug-21 12:30N 59°27' E 018°52'4 7.2
2017-Aug-21 12:01N 59°28' E 018°45'5 9.3
2017-Aug-21 11:31N 59°25' E 018°38'815.0
2017-Aug-21 10:59N 59°25' E 018°22'510.8
2017-Aug-21 10:30N 59°22' E 018°15'510.9
2017-Aug-21 10:01N 59°20' E 018°05'0 0.1
2017-Aug-21 09:30N 59°20' E 018°05'0 0.0
2017-Aug-21 09:01N 59°20' E 018°05'0 0.0
2017-Aug-21 08:31N 59°20' E 018°05'0 0.0
2017-Aug-21 08:00N 59°20' E 018°05'0 0.0
2017-Aug-21 07:30N 59°20' E 018°05'0 0.0
2017-Aug-21 07:00N 59°20' E 018°05'0 0.0
2017-Aug-21 06:30N 59°20' E 018°05'0 0.0
2017-Aug-21 06:00N 59°20' E 018°05'0 0.0
2017-Aug-21 05:30N 59°20' E 018°05'0 0.0
2017-Aug-21 05:01N 59°20' E 018°05'0 0.0
2017-Aug-21 04:30N 59°20' E 018°05'0 0.0
2017-Aug-21 04:01N 59°20' E 018°05'0 0.0
2017-Aug-21 03:30N 59°20' E 018°05'0 0.0
2017-Aug-21 03:00N 59°20' E 018°05'0 0.0
2017-Aug-21 02:30N 59°20' E 018°05'0 0.0
2017-Aug-21 02:01N 59°20' E 018°05'0 0.0
2017-Aug-21 01:31N 59°20' E 018°05'0 0.0
2017-Aug-21 01:01N 59°20' E 018°05'0 0.0
2017-Aug-21 00:31N 59°20' E 018°05'0 0.0
2017-Aug-21 00:00N 59°20' E 018°05'0 0.0
2017-Aug-20 23:31N 59°20' E 018°05'0 0.0
2017-Aug-20 23:01N 59°20' E 018°05'0 0.0
2017-Aug-20 22:30N 59°20' E 018°05'0 0.0
2017-Aug-20 22:01N 59°20' E 018°05'0 0.0
2017-Aug-20 21:30N 59°20' E 018°05'0 0.0
2017-Aug-20 21:00N 59°20' E 018°05'0 0.0
2017-Aug-20 20:31N 59°20' E 018°05'0 0.0
2017-Aug-20 20:00N 59°20' E 018°05'3 5.0
2017-Aug-20 19:31N 59°19' E 018°09'815.6
2017-Aug-20 19:00N 59°24' E 018°21'611.4
2017-Aug-20 18:27N 59°24' E 018°34'711.4
2017-Aug-20 17:51N 59°28' E 018°45'410.6
2017-Aug-20 17:30N 59°30' E 018°51'510.1
2017-Aug-20 17:00N 59°25' E 018°55'810.6
2017-Aug-20 16:14N 59°26' E 018°39'414.7
2017-Aug-20 15:58N 59°25' E 018°31'510.4
2017-Aug-20 15:29N 59°24' E 018°21'816.4
2017-Aug-20 15:01N 59°19' E 018°09'3 5.0
2017-Aug-20 14:30N 59°20' E 018°05'4 7.8
2017-Aug-20 14:00N 59°20' E 018°12'612.8
2017-Aug-20 13:30N 59°25' E 018°22'713.1
2017-Aug-20 13:00N 59°24' E 018°35'7 7.9
2017-Aug-20 12:09N 59°27' E 018°46'212.3
2017-Aug-20 12:00N 59°28' E 018°49'3 6.9
2017-Aug-20 11:31N 59°25' E 018°55'0 0.7
2017-Aug-20 10:56N 59°25' E 018°55'5 9.8
2017-Aug-20 10:27N 59°29' E 018°50'3 5.8
2017-Aug-20 09:54N 59°27' E 018°44'613.0
2017-Aug-20 09:26N 59°24' E 018°35'613.9
2017-Aug-20 09:00N 59°25' E 018°23'611.7
2017-Aug-20 08:30N 59°21' E 018°14'510.1
2017-Aug-20 08:01N 59°20' E 018°05'0 0.1
2017-Aug-20 07:30N 59°20' E 018°05'0 0.0
2017-Aug-20 07:00N 59°20' E 018°05'0 0.0
2017-Aug-20 06:30N 59°20' E 018°05'0 0.0
2017-Aug-20 06:00N 59°20' E 018°05'0 0.0
2017-Aug-20 05:30N 59°20' E 018°05'0 0.0
2017-Aug-20 05:00N 59°20' E 018°05'0 0.0
2017-Aug-20 04:30N 59°20' E 018°05'0 0.0
2017-Aug-20 04:00N 59°20' E 018°05'0 0.0
2017-Aug-20 03:30N 59°20' E 018°05'0 0.0
2017-Aug-20 03:00N 59°20' E 018°05'0 0.0
2017-Aug-20 02:31N 59°20' E 018°05'0 0.0
2017-Aug-20 02:00N 59°20' E 018°05'0 0.0
2017-Aug-20 01:30N 59°20' E 018°05'0 0.0
2017-Aug-20 01:00N 59°20' E 018°05'0 0.0
2017-Aug-20 00:30N 59°20' E 018°05'0 0.0
2017-Aug-20 00:00N 59°20' E 018°05'0 0.0
2017-Aug-19 23:30N 59°20' E 018°05'0 0.0
2017-Aug-19 23:00N 59°20' E 018°05'0 0.0
2017-Aug-19 22:30N 59°20' E 018°05'0 0.0
2017-Aug-19 22:00N 59°20' E 018°05'0 0.0
2017-Aug-19 21:30N 59°20' E 018°05'0 0.0
2017-Aug-19 21:00N 59°20' E 018°05'0 0.0
2017-Aug-19 20:30N 59°20' E 018°05'0 0.0
2017-Aug-19 20:00N 59°20' E 018°05'2 3.3
2017-Aug-19 19:30N 59°19' E 018°08'815.9
2017-Aug-19 19:00N 59°24' E 018°21'611.7
2017-Aug-19 18:30N 59°25' E 018°32'713.4
2017-Aug-19 18:01N 59°27' E 018°44'5 9.3
2017-Aug-19 17:31N 59°30' E 018°51'510.2
2017-Aug-19 17:01N 59°26' E 018°55'6 9.8
2017-Aug-19 16:25N 59°26' E 018°44'615.3
2017-Aug-19 16:00N 59°25' E 018°31'510.7
2017-Aug-19 15:30N 59°24' E 018°21'815.7
2017-Aug-19 15:00N 59°19' E 018°09'1 1.1
2017-Aug-19 14:01N 59°20' E 018°11'713.9
2017-Aug-19 13:30N 59°24' E 018°21'612.2
2017-Aug-19 12:59N 59°24' E 018°34'711.2
2017-Aug-19 12:21N 59°28' E 018°46'2 5.6
2017-Aug-19 11:59N 59°29' E 018°50'5 6.4
2017-Aug-19 11:15N 59°24' E 018°53'2 6.5
2017-Aug-19 11:00N 59°25' E 018°55'5 9.8
2017-Aug-19 10:30N 59°30' E 018°50'4 7.2
2017-Aug-19 10:00N 59°27' E 018°44'611.8
2017-Aug-19 09:30N 59°24' E 018°35'713.1
2017-Aug-19 09:00N 59°25' E 018°22'510.8
2017-Aug-19 08:30N 59°21' E 018°14'5 9.9
2017-Aug-19 08:00N 59°20' E 018°05'0 0.1
2017-Aug-19 07:31N 59°20' E 018°05'0 0.0
2017-Aug-19 07:01N 59°20' E 018°05'0 0.0
2017-Aug-19 06:31N 59°20' E 018°05'0 0.0
2017-Aug-19 06:01N 59°20' E 018°05'0 0.0
2017-Aug-19 05:31N 59°20' E 018°05'0 0.0
2017-Aug-19 05:01N 59°20' E 018°05'0 0.0
2017-Aug-19 04:31N 59°20' E 018°05'0 0.0
2017-Aug-19 04:01N 59°20' E 018°05'0 0.0
2017-Aug-19 03:31N 59°20' E 018°05'0 0.0
2017-Aug-19 03:01N 59°20' E 018°05'0 0.0
2017-Aug-19 02:31N 59°20' E 018°05'0 0.0
2017-Aug-19 02:00N 59°20' E 018°05'0 0.0
2017-Aug-19 01:31N 59°20' E 018°05'0 0.0
2017-Aug-19 01:00N 59°20' E 018°05'0 0.0
2017-Aug-19 00:30N 59°20' E 018°05'0 0.0
2017-Aug-19 00:01N 59°20' E 018°05'0 0.0
2017-Aug-18 23:29N 59°20' E 018°05'0 0.0
2017-Aug-18 23:00N 59°20' E 018°05'0 0.0
2017-Aug-18 22:30N 59°20' E 018°05'0 0.0
2017-Aug-18 22:00N 59°20' E 018°05'0 0.0
2017-Aug-18 21:30N 59°20' E 018°05'0 0.0
2017-Aug-18 21:00N 59°20' E 018°05'0 0.0
2017-Aug-18 20:30N 59°20' E 018°05'510.0
2017-Aug-18 20:01N 59°21' E 018°14'713.7
2017-Aug-18 19:30N 59°26' E 018°23'816.3
2017-Aug-18 18:59N 59°26' E 018°40'714.4
2017-Aug-18 18:30N 59°24' E 018°53'3 6.5
2017-Aug-18 18:00N 59°27' E 018°51'3 6.0
2017-Aug-18 17:27N 59°28' E 018°45'4 9.8
2017-Aug-18 17:01N 59°25' E 018°38'815.7
2017-Aug-18 16:30N 59°26' E 018°22'611.7
2017-Aug-18 16:00N 59°21' E 018°14'510.1
2017-Aug-18 15:31N 59°20' E 018°05'0 0.1
2017-Aug-18 15:00N 59°20' E 018°05'0 0.0
2017-Aug-18 14:31N 59°20' E 018°05'9 9.4
2017-Aug-18 13:30N 59°24' E 018°21'711.6
2017-Aug-18 12:56N 59°24' E 018°35'612.5
2017-Aug-18 12:24N 59°28' E 018°45'4 8.4
2017-Aug-18 11:58N 59°30' E 018°51'510.6
2017-Aug-18 11:30N 59°25' E 018°55'0 0.6
2017-Aug-18 10:51N 59°25' E 018°55'3 8.3
2017-Aug-18 10:30N 59°27' E 018°51'3 6.1
2017-Aug-18 09:57N 59°28' E 018°45'4 9.6
2017-Aug-18 09:30N 59°25' E 018°38'815.2
2017-Aug-18 08:59N 59°25' E 018°22'511.1
2017-Aug-18 08:30N 59°22' E 018°15'510.5
2017-Aug-18 08:01N 59°20' E 018°05'0 0.0
2017-Aug-18 07:30N 59°20' E 018°05'0 0.0
2017-Aug-18 07:00N 59°20' E 018°05'0 0.0
2017-Aug-18 06:30N 59°20' E 018°05'0 0.0
2017-Aug-18 06:00N 59°20' E 018°05'0 0.0
2017-Aug-18 05:30N 59°20' E 018°05'0 0.0
2017-Aug-18 05:00N 59°20' E 018°05'0 0.0
2017-Aug-18 04:30N 59°20' E 018°05'0 0.0
2017-Aug-18 04:00N 59°20' E 018°05'0 0.0
2017-Aug-18 03:30N 59°20' E 018°05'0 0.0
2017-Aug-18 03:01N 59°20' E 018°05'0 0.0
2017-Aug-18 02:31N 59°20' E 018°05'0 0.0
2017-Aug-18 02:01N 59°20' E 018°05'0 0.0
2017-Aug-18 01:30N 59°20' E 018°05'0 0.0
2017-Aug-18 01:00N 59°20' E 018°05'0 0.0
2017-Aug-18 00:30N 59°20' E 018°05'0 0.0
2017-Aug-18 00:01N 59°20' E 018°05'0 0.0
2017-Aug-17 23:31N 59°20' E 018°05'0 0.0
2017-Aug-17 23:01N 59°20' E 018°05'0 0.0
2017-Aug-17 22:30N 59°20' E 018°05'0 0.0
2017-Aug-17 22:00N 59°20' E 018°05'0 0.0
2017-Aug-17 21:30N 59°20' E 018°05'0 0.0
2017-Aug-17 21:01N 59°20' E 018°05'0 0.0
2017-Aug-17 20:31N 59°20' E 018°05'611.9
2017-Aug-17 20:00N 59°22' E 018°16'611.8
2017-Aug-17 19:30N 59°26' E 018°23'816.4
2017-Aug-17 19:00N 59°26' E 018°39'714.6
2017-Aug-17 18:30N 59°24' E 018°53'2 4.5
2017-Aug-17 18:00N 59°27' E 018°53'4 8.5
2017-Aug-17 17:30N 59°28' E 018°45'510.8
2017-Aug-17 17:00N 59°24' E 018°37'814.7
2017-Aug-17 16:30N 59°25' E 018°22'611.7
2017-Aug-17 16:00N 59°21' E 018°14'510.1
2017-Aug-17 15:31N 59°20' E 018°05'0 0.1
2017-Aug-17 15:00N 59°20' E 018°05'0 0.0
2017-Aug-17 14:30N 59°20' E 018°05'4 8.4
2017-Aug-17 14:00N 59°20' E 018°13'611.5
2017-Aug-17 13:30N 59°24' E 018°21'712.9
2017-Aug-17 13:00N 59°24' E 018°34'611.5
2017-Aug-17 12:28N 59°27' E 018°44'4 9.0
2017-Aug-17 12:01N 59°30' E 018°50'510.9
2017-Aug-17 11:30N 59°25' E 018°55'0 0.9
2017-Aug-17 11:00N 59°25' E 018°55'510.1
2017-Aug-17 10:31N 59°30' E 018°51'4 7.9
2017-Aug-17 09:59N 59°27' E 018°44'612.5
2017-Aug-17 09:29N 59°24' E 018°34'612.5
2017-Aug-17 09:00N 59°25' E 018°22'510.8
2017-Aug-17 08:30N 59°21' E 018°14'510.1
2017-Aug-17 08:00N 59°20' E 018°05'0 0.1
2017-Aug-17 07:30N 59°20' E 018°05'0 0.0
2017-Aug-17 07:00N 59°20' E 018°05'0 0.0
2017-Aug-17 06:30N 59°20' E 018°05'0 0.0
2017-Aug-17 06:00N 59°20' E 018°05'0 0.0
2017-Aug-17 05:31N 59°20' E 018°05'0 0.0
2017-Aug-17 05:00N 59°20' E 018°05'0 0.0
2017-Aug-17 04:30N 59°20' E 018°05'0 0.0
2017-Aug-17 04:00N 59°20' E 018°05'0 0.0
2017-Aug-17 03:31N 59°20' E 018°05'0 0.0
2017-Aug-17 03:00N 59°20' E 018°05'0 0.0
2017-Aug-17 02:30N 59°20' E 018°05'0 0.0
2017-Aug-17 02:00N 59°20' E 018°05'0 0.0
2017-Aug-17 01:30N 59°20' E 018°05'0 0.0
2017-Aug-17 01:01N 59°20' E 018°05'0 0.0
2017-Aug-17 00:31N 59°20' E 018°05'0 0.0
2017-Aug-17 00:00N 59°20' E 018°05'0 0.0
2017-Aug-16 23:30N 59°20' E 018°05'0 0.0
2017-Aug-16 23:00N 59°20' E 018°05'0 0.0
2017-Aug-16 22:31N 59°20' E 018°05'0 0.0
2017-Aug-16 22:00N 59°20' E 018°05'0 0.0
2017-Aug-16 21:31N 59°20' E 018°05'0 0.0
2017-Aug-16 21:01N 59°20' E 018°05'0 0.0
2017-Aug-16 20:31N 59°20' E 018°05'510.3
2017-Aug-16 20:01N 59°21' E 018°14'612.7
2017-Aug-16 19:30N 59°26' E 018°23'915.0
2017-Aug-16 18:56N 59°26' E 018°40'714.1
2017-Aug-16 18:26N 59°24' E 018°53'3 6.8
2017-Aug-16 18:01N 59°27' E 018°55'4 7.9
2017-Aug-16 17:30N 59°28' E 018°48'610.5
2017-Aug-16 16:56N 59°25' E 018°38'818.1
2017-Aug-16 16:30N 59°26' E 018°22'510.6
2017-Aug-16 16:00N 59°22' E 018°15'611.6
2017-Aug-16 15:31N 59°20' E 018°05'0 0.0
2017-Aug-16 15:00N 59°20' E 018°05'0 0.0
2017-Aug-16 14:31N 59°20' E 018°05'3 6.4
2017-Aug-16 14:00N 59°20' E 018°11'713.7
2017-Aug-16 13:30N 59°24' E 018°21'1011.7
2017-Aug-16 12:40N 59°26' E 018°40'412.2
2017-Aug-16 12:22N 59°28' E 018°47'3 7.0
2017-Aug-16 12:00N 59°30' E 018°50'5 9.7
2017-Aug-16 11:30N 59°25' E 018°55'1 1.8
2017-Aug-16 11:00N 59°25' E 018°54'510.4
2017-Aug-16 10:30N 59°29' E 018°49'3 6.1
2017-Aug-16 09:58N 59°27' E 018°44'4 8.5
2017-Aug-16 09:30N 59°25' E 018°38'815.8
2017-Aug-16 09:00N 59°25' E 018°22'611.3
2017-Aug-16 08:30N 59°21' E 018°15'510.6
2017-Aug-16 08:01N 59°20' E 018°05'0 0.0
2017-Aug-16 07:30N 59°20' E 018°05'0 0.0
2017-Aug-16 07:00N 59°20' E 018°05'0 0.0
2017-Aug-16 06:30N 59°20' E 018°05'0 0.0
2017-Aug-16 06:00N 59°20' E 018°05'0 0.0
2017-Aug-16 05:30N 59°20' E 018°05'0 0.0
2017-Aug-16 05:00N 59°20' E 018°05'0 0.0
2017-Aug-16 04:31N 59°20' E 018°05'0 0.0
2017-Aug-16 04:01N 59°20' E 018°05'0 0.0
2017-Aug-16 03:31N 59°20' E 018°05'0 0.0
2017-Aug-16 03:01N 59°20' E 018°05'0 0.0
2017-Aug-16 02:30N 59°20' E 018°05'0 0.0
2017-Aug-16 02:00N 59°20' E 018°05'0 0.0
2017-Aug-16 01:30N 59°20' E 018°05'0 0.0
2017-Aug-16 01:00N 59°20' E 018°05'0 0.0
2017-Aug-16 00:31N 59°20' E 018°05'0 0.0
2017-Aug-16 00:00N 59°20' E 018°05'0 0.0
2017-Aug-15 23:30N 59°20' E 018°05'0 0.0
2017-Aug-15 23:00N 59°20' E 018°05'0 0.0
2017-Aug-15 22:30N 59°20' E 018°05'0 0.0
2017-Aug-15 22:01N 59°20' E 018°05'0 0.0
2017-Aug-15 21:30N 59°20' E 018°05'0 0.0
2017-Aug-15 21:00N 59°20' E 018°05'0 0.1
2017-Aug-15 20:30N 59°20' E 018°05'611.3
2017-Aug-15 20:00N 59°22' E 018°15'612.6
2017-Aug-15 19:31N 59°26' E 018°23'816.3
2017-Aug-15 19:01N 59°26' E 018°40'713.4
2017-Aug-15 18:29N 59°24' E 018°53'3 6.5
2017-Aug-15 18:01N 59°27' E 018°55'4 7.2
2017-Aug-15 17:30N 59°28' E 018°48'510.3
2017-Aug-15 17:01N 59°26' E 018°39'816.6
2017-Aug-15 16:30N 59°26' E 018°22'611.2
2017-Aug-15 16:00N 59°22' E 018°15'510.7
2017-Aug-15 15:30N 59°20' E 018°05'0 0.1
2017-Aug-15 15:01N 59°20' E 018°05'0 0.0
2017-Aug-15 14:30N 59°20' E 018°05'4 7.1
2017-Aug-15 14:00N 59°20' E 018°12'612.9
2017-Aug-15 13:30N 59°24' E 018°21'912.5
2017-Aug-15 12:48N 59°26' E 018°38'311.0
2017-Aug-15 12:29N 59°27' E 018°44'4 8.2
2017-Aug-15 12:01N 59°30' E 018°50'5 9.8
2017-Aug-15 11:30N 59°25' E 018°55'0 0.7
2017-Aug-15 10:57N 59°25' E 018°55'4 8.7
2017-Aug-15 10:30N 59°28' E 018°50'3 5.0
2017-Aug-15 09:54N 59°27' E 018°44'612.7
2017-Aug-15 09:25N 59°24' E 018°34'613.3
2017-Aug-15 08:59N 59°25' E 018°22'511.6
2017-Aug-15 08:31N 59°21' E 018°14'510.0
2017-Aug-15 08:00N 59°20' E 018°05'0 0.0
2017-Aug-15 07:30N 59°20' E 018°05'0 0.0
2017-Aug-15 07:01N 59°20' E 018°05'0 0.0
2017-Aug-15 06:30N 59°20' E 018°05'0 0.0
2017-Aug-15 06:00N 59°20' E 018°05'0 0.0
2017-Aug-15 05:30N 59°20' E 018°05'0 0.0
2017-Aug-15 05:00N 59°20' E 018°05'0 0.0
2017-Aug-15 04:30N 59°20' E 018°05'0 0.0
2017-Aug-15 04:00N 59°20' E 018°05'0 0.0
2017-Aug-15 03:30N 59°20' E 018°05'0 0.0
2017-Aug-15 03:00N 59°20' E 018°05'0 0.0
2017-Aug-15 02:30N 59°20' E 018°05'0 0.0
2017-Aug-15 02:00N 59°20' E 018°05'0 0.0
2017-Aug-15 01:31N 59°20' E 018°05'0 0.0
2017-Aug-15 01:00N 59°20' E 018°05'0 0.0
2017-Aug-15 00:30N 59°20' E 018°05'0 0.0
2017-Aug-15 00:00N 59°20' E 018°05'0 0.0
2017-Aug-14 23:30N 59°20' E 018°05'0 0.0
2017-Aug-14 23:00N 59°20' E 018°05'0 0.0
2017-Aug-14 22:30N 59°20' E 018°05'0 0.0
2017-Aug-14 22:00N 59°20' E 018°05'0 0.0
2017-Aug-14 21:30N 59°20' E 018°05'0 0.0
2017-Aug-14 21:01N 59°20' E 018°05'0 0.0
2017-Aug-14 20:31N 59°20' E 018°05'510.3
2017-Aug-14 20:01N 59°21' E 018°14'714.6
2017-Aug-14 19:30N 59°27' E 018°25'714.9
2017-Aug-14 19:01N 59°26' E 018°39'714.4
2017-Aug-14 18:30N 59°24' E 018°53'3 5.4
2017-Aug-14 18:01N 59°27' E 018°54'4 7.3
2017-Aug-14 17:31N 59°28' E 018°47'5 9.4
2017-Aug-14 17:01N 59°26' E 018°38'816.3
2017-Aug-14 16:31N 59°26' E 018°22'510.5
2017-Aug-14 16:01N 59°22' E 018°15'611.4
2017-Aug-14 15:31N 59°20' E 018°05'0 0.1
2017-Aug-14 15:00N 59°20' E 018°05'0 0.0
2017-Aug-14 14:30N 59°20' E 018°05'4 7.2
2017-Aug-14 14:00N 59°20' E 018°12'712.7
2017-Aug-14 13:29N 59°24' E 018°21'612.6
2017-Aug-14 12:58N 59°24' E 018°34'612.2
2017-Aug-14 12:28N 59°27' E 018°44'4 8.5
2017-Aug-14 12:01N 59°30' E 018°50'5 9.9
2017-Aug-14 11:31N 59°25' E 018°55'1 1.2
2017-Aug-14 11:00N 59°25' E 018°54'510.0
2017-Aug-14 10:30N 59°29' E 018°50'3 5.9
2017-Aug-14 09:58N 59°27' E 018°44'612.6
2017-Aug-14 09:28N 59°24' E 018°34'612.8
2017-Aug-14 09:00N 59°25' E 018°22'510.9
2017-Aug-14 08:30N 59°21' E 018°14'510.1
2017-Aug-14 08:01N 59°20' E 018°05'0 0.0
2017-Aug-14 07:30N 59°20' E 018°05'0 0.0
2017-Aug-14 07:00N 59°20' E 018°05'0 0.0
2017-Aug-14 06:30N 59°20' E 018°05'0 0.0
2017-Aug-14 06:00N 59°20' E 018°05'0 0.0
2017-Aug-14 05:30N 59°20' E 018°05'0 0.0
2017-Aug-14 05:00N 59°20' E 018°05'0 0.0
2017-Aug-14 04:30N 59°20' E 018°05'0 0.0
2017-Aug-14 04:01N 59°20' E 018°05'0 0.0
2017-Aug-14 03:30N 59°20' E 018°05'0 0.0
2017-Aug-14 03:00N 59°20' E 018°05'0 0.0
2017-Aug-14 02:30N 59°20' E 018°05'0 0.0
2017-Aug-14 02:01N 59°20' E 018°05'0 0.0
2017-Aug-14 01:30N 59°20' E 018°05'0 0.0
2017-Aug-14 01:00N 59°20' E 018°05'0 0.0
2017-Aug-14 00:30N 59°20' E 018°05'0 0.0
2017-Aug-14 00:00N 59°20' E 018°05'0 0.0
2017-Aug-13 23:31N 59°20' E 018°05'0 0.0
2017-Aug-13 23:00N 59°20' E 018°05'0 0.0
2017-Aug-13 22:30N 59°20' E 018°05'0 0.0
2017-Aug-13 22:00N 59°20' E 018°05'  

Dump ship's entire track history